Time;durP1;ratioP1;P1;durP2;ratioP2;P2;SDS_P1;SDS_P2;PMS_P1;PMS_P2;Temp;Humidity;BMP_temperature;BMP_pressure;BME280_temperature;BME280_humidity;BME280_pressure;Samples;Min_cycle;Max_cycle;Signal;HPM_P1;HPM_P2
2021/06/23 00:01:24;;;;;;;23.83;11.23;;;;;;;16.13;100.00;95578.00;5069902;28;20123;-72
2021/06/23 00:03:50;;;;;;;18.60;10.60;;;;;;;16.06;100.00;95575.78;5077521;28;20412;-73
2021/06/23 00:06:16;;;;;;;17.75;11.00;;;;;;;16.08;100.00;95573.59;5080319;28;20036;-73
2021/06/23 00:08:42;;;;;;;20.45;13.02;;;;;;;16.13;100.00;95567.38;5068225;28;20044;-73
2021/06/23 00:11:08;;;;;;;16.90;11.18;;;;;;;16.05;100.00;95563.59;5071876;28;20041;-73
2021/06/23 00:13:35;;;;;;;16.63;11.77;;;;;;;16.06;100.00;95549.25;5071467;28;20045;-74
2021/06/23 00:16:05;;;;;;;15.18;11.45;;;;;;;16.07;100.00;95550.78;5071182;28;20173;-73
2021/06/23 00:18:31;;;;;;;13.27;10.40;;;;;;;16.04;100.00;95554.06;5065564;28;20413;-74
2021/06/23 00:20:57;;;;;;;24.60;12.48;;;;;;;16.04;100.00;95551.41;5072131;28;20040;-73
2021/06/23 00:23:23;;;;;;;15.35;11.68;;;;;;;16.03;100.00;95557.81;5071187;28;20519;-73
2021/06/23 00:25:49;;;;;;;16.85;12.15;;;;;;;16.00;100.00;95553.09;5068927;28;20518;-73
2021/06/23 00:28:15;;;;;;;22.73;13.20;;;;;;;15.97;100.00;95556.34;5060749;28;20089;-73
2021/06/23 00:30:41;;;;;;;16.63;11.77;;;;;;;15.92;100.00;95548.53;5072677;28;20045;-73
2021/06/23 00:33:12;;;;;;;15.43;12.30;;;;;;;15.93;100.00;95555.38;5070665;28;20112;-74
2021/06/23 00:35:37;;;;;;;16.23;11.85;;;;;;;15.91;100.00;95553.03;5083199;28;20044;-73
2021/06/23 00:38:03;;;;;;;20.25;11.85;;;;;;;15.94;100.00;95562.28;5085768;28;20037;-73
2021/06/23 00:40:30;;;;;;;17.70;13.07;;;;;;;15.89;100.00;95559.75;5072094;28;20417;-73
2021/06/23 00:42:55;;;;;;;17.50;12.60;;;;;;;15.89;100.00;95570.38;5087652;28;20489;-73
2021/06/23 00:45:21;;;;;;;16.95;12.48;;;;;;;15.83;100.00;95560.94;5075025;28;20111;-73
2021/06/23 00:47:48;;;;;;;20.33;14.38;;;;;;;15.81;100.00;95555.16;5070189;28;20064;-73
2021/06/23 00:50:17;;;;;;;23.92;13.90;;;;;;;15.85;100.00;95553.47;5073299;28;20545;-73
2021/06/23 00:52:43;;;;;;;29.25;14.85;;;;;;;15.89;100.00;95554.44;5071120;28;20712;-73
2021/06/23 00:55:10;;;;;;;20.30;13.63;;;;;;;15.88;100.00;95552.88;5089274;28;20413;-73
2021/06/23 00:57:39;;;;;;;24.27;14.10;;;;;;;15.89;100.00;95549.16;5066903;28;20091;-73
2021/06/23 01:00:06;;;;;;;23.52;14.18;;;;;;;15.90;100.00;95545.38;5077849;28;20040;-73
2021/06/23 01:02:33;;;;;;;18.15;12.82;;;;;;;15.91;100.00;95558.34;5089098;28;20044;-73
2021/06/23 01:04:59;;;;;;;20.80;13.98;;;;;;;15.87;100.00;95561.91;5070170;28;20041;-73
2021/06/23 01:07:25;;;;;;;15.98;12.07;;;;;;;15.90;100.00;95569.25;5060055;28;20072;-74
2021/06/23 01:09:55;;;;;;;17.35;11.98;;;;;;;15.89;100.00;95565.06;5071716;28;20048;-73
2021/06/23 01:12:38;;;;;;;17.25;12.30;;;;;;;15.88;100.00;95558.94;5071661;28;20055;-73
2021/06/23 01:15:04;;;;;;;20.00;12.25;;;;;;;15.86;100.00;95545.22;5070558;28;20041;-73
2021/06/23 01:17:34;;;;;;;17.58;12.52;;;;;;;15.86;100.00;95547.06;5090369;28;20115;-74
2021/06/23 01:20:06;;;;;;;14.65;11.57;;;;;;;15.88;100.00;95547.56;5071155;28;20054;-73
2021/06/23 01:22:33;;;;;;;19.25;12.98;;;;;;;15.87;100.00;95546.00;5067621;28;20036;-73
2021/06/23 01:24:59;;;;;;;18.85;13.20;;;;;;;15.89;100.00;95554.44;5074136;28;20059;-73
2021/06/23 01:27:25;;;;;;;22.15;13.07;;;;;;;15.87;100.00;95556.59;5069165;28;20406;-74
2021/06/23 01:29:50;;;;;;;21.95;14.43;;;;;;;15.84;100.00;95557.22;5064607;28;20049;-73
2021/06/23 01:32:16;;;;;;;21.38;14.90;;;;;;;15.83;100.00;95556.44;5057272;28;20082;-73
2021/06/23 01:34:42;;;;;;;18.35;13.00;;;;;;;15.83;100.00;95545.03;5070666;28;20036;-73
2021/06/23 01:37:09;;;;;;;16.60;11.93;;;;;;;15.76;100.00;95546.19;5065752;28;20044;-74
2021/06/23 01:39:35;;;;;;;20.17;12.70;;;;;;;15.84;100.00;95546.59;5083100;28;20044;-73
2021/06/23 01:42:00;;;;;;;14.40;11.40;;;;;;;15.78;100.00;95543.25;5067803;28;20040;-73
2021/06/23 01:44:29;;;;;;;19.45;13.30;;;;;;;15.80;100.00;95550.94;5068853;28;20082;-73
2021/06/23 01:46:56;;;;;;;17.17;12.40;;;;;;;15.73;100.00;95546.81;5069328;28;20048;-73
2021/06/23 01:49:26;;;;;;;15.60;11.38;;;;;;;15.76;100.00;95551.50;5066660;28;20148;-74
2021/06/23 01:51:53;;;;;;;15.45;11.30;;;;;;;15.76;100.00;95550.75;5066908;28;20044;-73
2021/06/23 01:54:19;;;;;;;14.20;11.77;;;;;;;15.74;100.00;95537.75;5073848;28;20482;-73
2021/06/23 01:56:45;;;;;;;12.45;9.98;;;;;;;15.80;100.00;95545.63;5072506;28;20139;-73
2021/06/23 01:59:11;;;;;;;15.10;11.10;;;;;;;15.77;100.00;95546.97;5070455;28;20515;-73
2021/06/23 02:01:51;;;;;;;13.85;11.30;;;;;;;15.71;100.00;95543.66;5073832;28;20119;-73
2021/06/23 02:04:53;;;;;;;17.30;10.85;;;;;;;15.69;100.00;95540.53;5091470;28;20532;-73
2021/06/23 02:07:24;;;;;;;15.60;11.23;;;;;;;15.64;100.00;95543.28;5080950;28;20115;-74
2021/06/23 02:10:14;;;;;;;15.80;10.23;;;;;;;15.57;100.00;95548.22;5080399;28;20040;-73
2021/06/23 02:13:17;;;;;;;15.70;9.48;;;;;;;15.53;100.00;95549.91;5073223;28;20062;-74
2021/06/23 02:15:45;;;;;;;14.07;9.23;;;;;;;15.52;100.00;95561.63;5074637;28;20059;-73
2021/06/23 02:18:10;;;;;;;12.40;10.10;;;;;;;15.40;100.00;95551.50;5067212;28;20075;-74
2021/06/23 02:20:37;;;;;;;14.20;9.30;;;;;;;15.41;100.00;95556.53;5081664;28;20068;-73
2021/06/23 02:23:10;;;;;;;11.23;8.95;;;;;;;15.36;100.00;95567.25;5073074;28;20037;-74
2021/06/23 02:25:37;;;;;;;13.60;9.85;;;;;;;15.31;100.00;95567.34;5065217;28;20214;-74
2021/06/23 02:28:03;;;;;;;14.63;10.18;;;;;;;15.29;100.00;95569.53;5053561;28;20065;-74
2021/06/23 02:30:29;;;;;;;13.13;10.00;;;;;;;15.25;100.00;95571.19;5073484;28;20044;-74
2021/06/23 02:32:56;;;;;;;11.93;9.70;;;;;;;15.18;100.00;95563.63;5073503;28;20528;-73
2021/06/23 02:35:26;;;;;;;17.02;10.60;;;;;;;15.22;100.00;95564.63;5082037;28;20047;-73
2021/06/23 02:37:53;;;;;;;13.95;10.07;;;;;;;15.27;100.00;95560.28;5073031;28;20045;-74
2021/06/23 02:40:20;;;;;;;13.27;10.00;;;;;;;15.23;100.00;95560.13;5075466;28;20039;-74
2021/06/23 02:42:45;;;;;;;14.52;10.88;;;;;;;15.23;100.00;95571.50;5073189;28;20060;-74
2021/06/23 02:45:13;;;;;;;16.52;12.18;;;;;;;15.25;100.00;95571.19;5073875;28;20036;-73
2021/06/23 02:47:39;;;;;;;17.05;11.02;;;;;;;15.25;100.00;95573.84;5067067;28;20036;-73
2021/06/23 02:50:05;;;;;;;15.50;11.05;;;;;;;15.26;100.00;95570.13;5077957;28;20420;-74
2021/06/23 02:52:34;;;;;;;13.82;10.85;;;;;;;15.26;100.00;95575.44;5072714;28;20044;-74
2021/06/23 02:55:00;;;;;;;16.88;12.48;;;;;;;15.29;100.00;95580.13;5079745;28;20058;-74
2021/06/23 02:57:26;;;;;;;13.68;10.25;;;;;;;15.26;100.00;95580.72;5072328;28;20036;-74
2021/06/23 02:59:53;;;;;;;14.75;11.55;;;;;;;15.25;100.00;95581.81;5084005;28;20062;-74
2021/06/23 03:02:19;;;;;;;15.55;11.90;;;;;;;15.23;100.00;95586.63;5088329;28;20521;-74
2021/06/23 03:04:45;;;;;;;14.88;11.57;;;;;;;15.24;100.00;95582.88;5072079;28;20032;-74
2021/06/23 03:07:12;;;;;;;16.25;12.05;;;;;;;15.19;100.00;95585.66;5089295;28;20567;-74
2021/06/23 03:09:38;;;;;;;15.93;12.02;;;;;;;15.13;100.00;95592.13;5071259;28;20110;-74
2021/06/23 03:12:06;;;;;;;17.30;12.40;;;;;;;15.13;100.00;95602.72;5072963;28;20036;-74
2021/06/23 03:14:32;;;;;;;18.25;12.18;;;;;;;15.16;100.00;95602.16;5075242;28;20052;-74
2021/06/23 03:16:58;;;;;;;19.35;11.82;;;;;;;15.11;100.00;95604.88;5071820;28;20040;-74
2021/06/23 03:19:24;;;;;;;18.55;12.23;;;;;;;15.04;100.00;95603.44;5076408;28;20036;-74
2021/06/23 03:21:50;;;;;;;20.63;13.07;;;;;;;15.05;100.00;95612.94;5092930;28;20068;-73
2021/06/23 03:24:15;;;;;;;15.95;12.90;;;;;;;15.10;100.00;95611.25;5073343;28;20040;-74
2021/06/23 03:26:41;;;;;;;15.68;12.60;;;;;;;15.05;100.00;95623.53;5071879;28;20513;-73
2021/06/23 03:29:29;;;;;;;20.23;13.65;;;;;;;15.12;100.00;95630.31;5066727;28;20052;-73
2021/06/23 03:31:56;;;;;;;17.77;13.50;;;;;;;15.14;100.00;95636.09;5072324;28;20490;-74
2021/06/23 03:34:21;;;;;;;21.25;14.60;;;;;;;15.20;100.00;95640.22;5072234;28;20044;-74
2021/06/23 03:36:47;;;;;;;17.95;13.98;;;;;;;15.16;100.00;95633.97;5068137;28;20094;-74
2021/06/23 03:39:12;;;;;;;22.35;14.52;;;;;;;15.16;100.00;95633.97;5070826;28;20044;-74
2021/06/23 03:41:38;;;;;;;18.00;14.55;;;;;;;15.23;100.00;95650.25;5078888;28;20041;-74
2021/06/23 03:44:03;;;;;;;18.75;14.10;;;;;;;15.25;100.00;95648.84;5076406;28;20040;-74
2021/06/23 03:46:29;;;;;;;20.85;15.20;;;;;;;15.28;100.00;95652.78;5087320;28;20040;-73
2021/06/23 03:48:57;;;;;;;20.13;16.27;;;;;;;15.22;100.00;95653.97;5079210;28;20048;-74
2021/06/23 03:51:23;;;;;;;20.45;14.88;;;;;;;15.24;100.00;95651.81;5082558;28;20044;-74
2021/06/23 03:53:49;;;;;;;21.65;15.38;;;;;;;15.26;100.00;95649.66;5084202;28;20493;-74
2021/06/23 03:56:14;;;;;;;20.13;14.13;;;;;;;15.24;100.00;95651.81;5070942;28;20040;-74
2021/06/23 03:58:42;;;;;;;17.08;13.07;;;;;;;15.31;100.00;95654.06;5071261;28;20525;-74
2021/06/23 04:01:08;;;;;;;20.15;14.63;;;;;;;15.34;100.00;95654.28;5071942;28;20378;-74
2021/06/23 04:03:34;;;;;;;16.30;12.68;;;;;;;15.37;100.00;95645.72;5070378;28;20044;-74
2021/06/23 04:05:59;;;;;;;16.88;12.98;;;;;;;15.35;100.00;95645.22;5067359;28;20055;-74
2021/06/23 04:08:25;;;;;;;18.48;13.90;;;;;;;15.38;100.00;95649.94;5069481;28;20352;-74
2021/06/23 04:10:50;;;;;;;16.52;12.30;;;;;;;15.39;100.00;95654.16;5062760;28;20190;-74
2021/06/23 04:13:16;;;;;;;18.25;13.38;;;;;;;15.39;100.00;95646.19;5078852;28;20043;-74
2021/06/23 04:15:41;;;;;;;21.27;14.20;;;;;;;15.42;100.00;95642.94;5082234;28;20104;-74
2021/06/23 04:18:07;;;;;;;15.07;12.38;;;;;;;15.36;100.00;95643.38;5073503;28;20040;-74
2021/06/23 04:20:33;;;;;;;21.70;13.55;;;;;;;15.35;100.00;95637.25;5070447;28;20040;-74
2021/06/23 04:22:59;;;;;;;16.20;12.77;;;;;;;15.37;100.00;95637.78;5078809;28;20481;-74
2021/06/23 04:25:24;;;;;;;18.08;12.65;;;;;;;15.38;100.00;95635.91;5070999;28;20041;-74
2021/06/23 04:27:50;;;;;;;16.38;12.18;;;;;;;15.39;100.00;95643.56;5061508;28;20536;-74
2021/06/23 04:30:15;;;;;;;15.13;10.88;;;;;;;15.44;100.00;95641.88;5075407;28;20048;-74
2021/06/23 04:32:41;;;;;;;16.02;12.50;;;;;;;15.42;100.00;95640.31;5066466;28;20051;-74
2021/06/23 04:35:08;;;;;;;19.27;13.32;;;;;;;15.48;100.00;95642.84;5056155;28;20033;-74
2021/06/23 04:37:38;;;;;;;15.77;13.85;;;;;;;15.52;100.00;95643.84;5067025;28;20401;-74
2021/06/23 04:40:06;;;;;;;19.27;13.75;;;;;;;15.58;100.00;95645.28;5066699;28;20436;-75
2021/06/23 04:42:32;;;;;;;21.25;14.70;;;;;;;15.60;100.00;95645.78;5070762;28;20036;-74
2021/06/23 04:44:57;;;;;;;21.02;14.88;;;;;;;15.68;100.00;95639.75;5076540;28;20379;-74
2021/06/23 04:47:23;;;;;;;19.67;15.23;;;;;;;15.74;100.00;95643.88;5066841;28;20498;-75
2021/06/23 04:49:49;;;;;;;19.77;14.73;;;;;;;15.74;100.00;95637.78;5051260;28;20048;-74
2021/06/23 04:52:14;;;;;;;23.92;15.95;;;;;;;15.82;100.00;95644.31;5084143;28;20157;-74
2021/06/23 04:54:40;;;;;;;25.92;17.38;;;;;;;15.80;100.00;95646.47;5068501;28;20059;-74
2021/06/23 04:57:06;;;;;;;25.42;18.08;;;;;;;15.82;100.00;95646.97;5069052;28;20048;-75
2021/06/23 04:59:31;;;;;;;40.97;23.00;;;;;;;15.90;100.00;95656.84;5065788;28;20127;-74
2021/06/23 05:01:57;;;;;;;33.40;22.27;;;;;;;15.94;100.00;95652.50;5083524;28;20101;-74
2021/06/23 05:04:23;;;;;;;38.60;22.75;;;;;;;15.94;100.00;95668.44;5067697;28;20037;-75
2021/06/23 05:06:48;;;;;;;32.85;23.77;;;;;;;15.98;100.00;95653.47;5068478;28;20127;-74
2021/06/23 05:09:14;;;;;;;33.30;22.75;;;;;;;15.95;100.00;95670.00;5059680;28;20043;-74
2021/06/23 05:11:40;;;;;;;43.45;27.40;;;;;;;15.96;100.00;95676.91;5076314;28;20544;-74
2021/06/23 05:14:06;;;;;;;43.20;26.08;;;;;;;16.01;100.00;95674.09;5070643;28;20524;-74
2021/06/23 05:16:35;;;;;;;47.45;27.92;;;;;;;16.03;100.00;95674.63;5084554;28;20063;-74
2021/06/23 05:19:00;;;;;;;56.08;29.85;;;;;;;16.14;100.00;95671.72;5058573;28;20142;-74
2021/06/23 05:21:26;;;;;;;49.90;29.42;;;;;;;16.08;100.00;95679.78;5069730;28;20494;-74
2021/06/23 05:23:52;;;;;;;49.80;29.13;;;;;;;16.18;100.00;95678.00;5071448;28;20094;-74
2021/06/23 05:26:17;;;;;;;46.35;28.50;;;;;;;16.16;100.00;95675.66;5082896;28;20509;-74
2021/06/23 05:28:43;;;;;;;45.83;28.63;;;;;;;16.23;100.00;95680.53;5065677;28;20048;-74
2021/06/23 05:31:08;;;;;;;40.75;27.98;;;;;;;16.28;100.00;95683.06;5070621;28;20041;-75
2021/06/23 05:33:34;;;;;;;47.22;30.65;;;;;;;16.35;100.00;95678.13;5075551;28;20032;-74
2021/06/23 05:35:59;;;;;;;49.78;30.30;;;;;;;16.51;100.00;95680.44;5069991;28;20467;-74
2021/06/23 05:38:25;;;;;;;40.55;27.80;;;;;;;16.51;100.00;95680.44;5070738;28;20085;-74
2021/06/23 05:40:51;;;;;;;46.00;28.33;;;;;;;16.50;100.00;95678.84;5050725;28;20044;-74
2021/06/23 05:43:16;;;;;;;46.10;28.25;;;;;;;16.49;100.00;95687.91;5065703;28;20036;-74
2021/06/23 05:45:42;;;;;;;40.13;27.05;;;;;;;16.48;100.00;95687.13;5069173;28;20094;-74
2021/06/23 05:48:08;;;;;;;37.38;26.13;;;;;;;16.45;100.00;95688.50;5062676;28;20091;-74
2021/06/23 05:50:34;;;;;;;37.75;26.90;;;;;;;16.48;100.00;95687.13;5070494;28;20071;-74
2021/06/23 05:53:00;;;;;;;45.50;28.58;;;;;;;16.54;100.00;95693.09;5071019;28;20040;-74
2021/06/23 05:55:25;;;;;;;38.30;25.67;;;;;;;16.47;99.51;95695.41;5067340;28;20079;-74
2021/06/23 05:57:55;;;;;;;46.35;29.65;;;;;;;16.58;100.00;95686.88;5070829;28;20043;-75
2021/06/23 06:00:23;;;;;;;40.50;27.05;;;;;;;16.63;99.93;95699.25;5069396;28;20247;-74
2021/06/23 06:02:50;;;;;;;46.25;29.17;;;;;;;16.69;100.00;95703.34;5071231;28;20469;-74
2021/06/23 06:05:16;;;;;;;42.20;28.50;;;;;;;16.78;100.00;95701.53;5063708;28;20089;-74
2021/06/23 06:07:42;;;;;;;42.15;26.67;;;;;;;16.69;100.00;95703.34;5070460;28;20067;-74
2021/06/23 06:10:09;;;;;;;43.70;26.05;;;;;;;16.78;100.00;95709.50;5069074;28;20529;-74
2021/06/23 06:12:35;;;;;;;45.40;29.10;;;;;;;16.82;100.00;95707.00;5070228;28;20045;-74
2021/06/23 06:15:01;;;;;;;33.83;24.38;;;;;;;16.75;99.62;95712.78;5069943;28;20041;-74
2021/06/23 06:17:26;;;;;;;37.80;27.02;;;;;;;16.76;99.49;95709.00;5061087;28;20040;-74
2021/06/23 06:19:52;;;;;;;36.70;23.90;;;;;;;16.74;99.04;95711.19;5059007;28;20444;-74
2021/06/23 06:22:18;;;;;;;41.83;25.05;;;;;;;16.79;99.57;95711.06;5069514;28;20059;-75
2021/06/23 06:24:43;;;;;;;35.22;24.35;;;;;;;16.76;99.10;95709.00;5068633;28;20041;-74
2021/06/23 06:27:09;;;;;;;36.83;23.65;;;;;;;16.84;99.62;95722.66;5087749;28;20416;-74
2021/06/23 06:29:34;;;;;;;39.13;25.25;;;;;;;16.86;100.00;95720.47;5081355;28;20052;-74
2021/06/23 06:32:00;;;;;;;42.35;26.80;;;;;;;16.94;100.00;95720.56;5069388;28;20041;-74
2021/06/23 06:34:25;;;;;;;43.38;27.63;;;;;;;16.97;100.00;95713.84;5083514;28;20070;-74
2021/06/23 06:36:51;;;;;;;43.03;27.63;;;;;;;17.00;100.00;95717.78;5069291;28;20078;-75
2021/06/23 06:39:17;;;;;;;33.75;23.98;;;;;;;16.99;99.38;95716.97;5065572;28;20437;-75
2021/06/23 06:41:42;;;;;;;31.20;22.98;;;;;;;17.03;98.45;95720.59;5069574;28;20041;-76
2021/06/23 06:44:08;;;;;;;31.40;23.50;;;;;;;17.12;98.67;95729.44;5069859;28;20044;-74
2021/06/23 06:46:36;;;;;;;33.95;22.55;;;;;;;17.08;96.91;95720.47;5071777;28;20513;-75
2021/06/23 06:49:02;;;;;;;33.08;24.35;;;;;;;17.21;97.99;95723.34;5076502;28;20155;-74
2021/06/23 06:51:27;;;;;;;38.75;27.15;;;;;;;17.33;98.72;95720.13;5079189;28;20048;-75
2021/06/23 06:53:53;;;;;;;33.67;24.23;;;;;;;17.48;98.57;95723.16;5074891;28;20548;-75
2021/06/23 06:56:18;;;;;;;37.20;25.23;;;;;;;17.59;98.20;95722.88;5072317;28;20044;-75
2021/06/23 06:58:44;;;;;;;32.85;23.90;;;;;;;17.68;97.49;95726.31;5070478;28;20045;-74
2021/06/23 07:01:09;;;;;;;35.58;23.67;;;;;;;17.82;96.30;95726.97;5067339;28;20040;-75
2021/06/23 07:03:35;;;;;;;32.15;21.45;;;;;;;17.77;95.60;95724.47;5070435;28;20091;-75
2021/06/23 07:06:00;;;;;;;37.40;26.45;;;;;;;17.81;97.44;95720.09;5088151;28;20566;-75
2021/06/23 07:08:26;;;;;;;30.08;23.48;;;;;;;17.86;95.54;95715.72;5073152;28;20044;-75
2021/06/23 07:10:51;;;;;;;30.40;22.13;;;;;;;17.84;93.64;95708.84;5069417;28;20478;-75
2021/06/23 07:13:17;;;;;;;28.88;21.10;;;;;;;17.81;94.54;95713.97;5089989;28;20097;-75
2021/06/23 07:15:42;;;;;;;29.50;20.83;;;;;;;17.80;94.66;95718.53;5072437;28;20058;-75
2021/06/23 07:18:08;;;;;;;30.60;23.05;;;;;;;17.79;95.88;95716.97;5077129;28;20490;-74
2021/06/23 07:20:34;;;;;;;26.30;21.05;;;;;;;17.76;94.19;95712.25;5072537;28;20044;-75
2021/06/23 07:23:00;;;;;;;30.48;22.80;;;;;;;17.74;95.49;95714.47;5077678;28;20081;-75
2021/06/23 07:25:26;;;;;;;30.65;21.40;;;;;;;17.82;95.78;95708.34;5062666;28;20036;-75
2021/06/23 07:27:51;;;;;;;29.80;19.00;;;;;;;17.75;90.31;95710.69;5088342;28;20032;-74
2021/06/23 07:30:18;;;;;;;30.33;22.13;;;;;;;17.86;96.00;95705.06;5072992;28;20040;-75
2021/06/23 07:32:53;;;;;;;28.90;20.40;;;;;;;17.84;95.29;95708.84;5075067;28;20369;-74
2021/06/23 07:38:07;;;;;;;22.50;18.08;;;;;;;17.90;92.66;95706.00;5065439;28;20040;-75
2021/06/23 07:43:12;;;;;;;20.15;15.45;;;;;;;18.19;94.84;95700.13;5071763;28;20039;-75
2021/06/23 07:45:43;;;;;;;21.02;15.80;;;;;;;18.28;94.43;95700.13;5071936;28;20045;-75
2021/06/23 07:48:09;;;;;;;21.98;16.60;;;;;;;18.16;92.24;95698.88;5073204;28;20032;-75
2021/06/23 07:50:43;;;;;;;20.80;15.98;;;;;;;18.11;92.24;95691.03;5083513;28;20040;-75
2021/06/23 08:12:16;;;;;;;17.48;13.68;;;;;;;18.42;91.16;95695.41;5069198;28;20033;-76
2021/06/23 08:14:42;;;;;;;16.75;13.05;;;;;;;18.34;91.63;95693.53;5068179;28;20169;-76
2021/06/23 08:17:08;;;;;;;17.50;13.40;;;;;;;18.38;93.48;95693.69;5069645;28;20062;-76
2021/06/23 08:19:33;;;;;;;20.25;13.85;;;;;;;18.36;90.62;95691.34;5069851;28;20045;-76
2021/06/23 08:21:59;;;;;;;16.50;13.32;;;;;;;18.51;89.92;95693.50;5070298;28;20033;-76
2021/06/23 08:24:25;;;;;;;13.52;11.30;;;;;;;18.59;90.89;95689.28;5076929;28;20596;-76
2021/06/23 08:26:50;;;;;;;13.65;10.35;;;;;;;18.79;90.25;95692.38;5072932;28;20310;-76
2021/06/23 08:29:16;;;;;;;13.68;9.57;;;;;;;18.98;90.32;95689.38;5094635;28;20036;-76
2021/06/23 08:31:41;;;;;;;13.18;8.35;;;;;;;18.93;87.29;95686.88;5090067;28;20036;-76
2021/06/23 08:34:07;;;;;;;11.93;7.68;;;;;;;18.93;86.44;95694.88;5067413;28;20033;-77
2021/06/23 08:36:33;;;;;;;12.13;7.45;;;;;;;18.83;87.33;95688.78;5083763;28;20032;-78
2021/06/23 08:38:58;;;;;;;11.73;7.05;;;;;;;18.98;86.00;95690.16;5072086;28;20033;-77
2021/06/23 08:41:26;;;;;;;9.85;7.85;;;;;;;19.11;85.42;95683.06;5078064;28;20064;-81
2021/06/23 08:43:58;;;;;;;7.50;6.35;;;;;;;19.36;84.18;95683.25;5077446;28;20037;-77
2021/06/23 08:46:25;;;;;;;14.25;6.75;;;;;;;19.55;79.88;95680.16;5071502;28;20035;-78
2021/06/23 08:48:52;;;;;;;8.70;6.50;;;;;;;19.63;78.08;95682.03;5078740;28;20067;-80
2021/06/23 08:51:20;;;;;;;9.52;7.07;;;;;;;19.47;85.24;95684.47;5082172;28;20456;-78
2021/06/23 08:53:45;;;;;;;10.05;6.90;;;;;;;19.30;86.23;95687.22;5073753;28;20063;-80
2021/06/23 08:56:11;;;;;;;10.15;6.90;;;;;;;18.95;85.72;95680.13;5071606;28;20063;-80
2021/06/23 08:58:37;;;;;;;9.63;7.60;;;;;;;18.81;86.70;95679.53;5072454;28;20059;-78
2021/06/23 09:01:03;;;;;;;11.63;8.10;;;;;;;18.92;84.86;95685.31;5071509;28;20036;-78
2021/06/23 09:03:29;;;;;;;10.88;8.15;;;;;;;19.28;83.98;95681.41;5072132;28;20561;-77
2021/06/23 09:05:56;;;;;;;12.43;7.88;;;;;;;19.42;82.47;95686.53;5063319;28;20048;-77
2021/06/23 09:08:36;;;;;;;13.25;8.68;;;;;;;19.59;81.76;95680.31;5060316;28;20082;-77
2021/06/23 09:11:13;;;;;;;9.73;7.75;;;;;;;19.85;77.01;95672.94;5079856;28;20048;-77
2021/06/23 09:13:39;;;;;;;10.25;8.68;;;;;;;19.64;85.86;95682.78;5071106;28;20049;-79
2021/06/23 09:16:04;;;;;;;9.88;6.90;;;;;;;19.81;78.93;95682.75;5071131;28;20041;-81
2021/06/23 09:18:36;;;;;;;10.38;7.35;;;;;;;19.79;82.58;95679.59;5069640;28;20044;-79
2021/06/23 09:21:11;;;;;;;9.93;7.95;;;;;;;19.40;84.75;95673.50;5072393;28;20044;-78
2021/06/23 09:23:41;;;;;;;9.25;8.35;;;;;;;19.53;81.02;95680.50;5072497;28;20476;-80
2021/06/23 09:26:33;;;;;;;11.48;8.38;;;;;;;19.75;80.87;95673.31;5070260;28;20059;-79
2021/06/23 09:29:15;;;;;;;9.98;7.93;;;;;;;20.31;83.71;95674.97;5067346;28;20037;-80
2021/06/23 09:31:53;;;;;;;10.07;6.78;;;;;;;20.52;78.95;95689.09;5054243;28;20041;-79
2021/06/23 09:34:36;;;;;;;9.18;8.18;;;;;;;20.87;75.96;95672.72;5070754;28;20524;-81
2021/06/23 09:37:25;;;;;;;10.00;8.50;;;;;;;20.77;74.16;95673.13;5066200;28;20060;-82
2021/06/23 09:40:08;;;;;;;9.52;7.90;;;;;;;20.67;78.03;95673.56;5061390;28;20045;-78
2021/06/23 09:42:42;;;;;;;10.57;7.80;;;;;;;20.58;81.67;95671.72;5054269;28;20049;-79
2021/06/23 09:45:10;;;;;;;9.30;7.28;;;;;;;20.42;81.47;95671.56;5089026;28;20048;-78
2021/06/23 09:47:36;;;;;;;10.65;8.20;;;;;;;20.32;78.33;95668.53;5067501;28;20063;-81
2021/06/23 09:50:19;;;;;;;11.27;7.25;;;;;;;20.63;74.23;95659.25;5062322;28;20051;-81
2021/06/23 09:53:01;;;;;;;8.82;7.53;;;;;;;20.61;74.90;95659.59;5077847;28;20036;-81
2021/06/23 09:55:46;;;;;;;10.82;8.43;;;;;;;20.53;78.21;95663.94;5074839;28;20044;-81
2021/06/23 09:58:19;;;;;;;9.88;8.38;;;;;;;20.40;84.86;95675.66;5060136;28;20059;-83
2021/06/23 10:01:04;;;;;;;11.48;8.63;;;;;;;20.43;78.81;95669.69;5072231;28;20041;-81
2021/06/23 10:03:34;;;;;;;9.98;8.88;;;;;;;20.45;81.60;95667.44;5061119;28;20081;-79
2021/06/23 10:06:23;;;;;;;10.57;8.85;;;;;;;20.89;81.50;95665.16;5055452;28;20041;-78
2021/06/23 10:08:51;;;;;;;8.65;7.50;;;;;;;21.02;77.63;95665.16;5061878;28;20383;-77
2021/06/23 10:11:31;;;;;;;8.80;7.60;;;;;;;21.85;72.28;95647.09;5083220;28;20064;-78
2021/06/23 10:13:57;;;;;;;8.15;6.97;;;;;;;21.80;70.08;95650.00;5072481;28;20402;-79
2021/06/23 10:16:24;;;;;;;10.05;7.57;;;;;;;21.59;75.79;95658.97;5073185;28;20047;-78
2021/06/23 10:18:52;;;;;;;9.13;7.72;;;;;;;21.63;75.50;95651.81;5069919;28;20075;-79
2021/06/23 10:21:18;;;;;;;10.68;7.50;;;;;;;21.15;73.00;95645.34;5056880;28;20045;-78
2021/06/23 10:23:45;;;;;;;10.82;7.70;;;;;;;21.75;76.28;95634.16;5065342;28;20032;-80
2021/06/23 10:26:11;;;;;;;8.77;7.15;;;;;;;22.34;69.44;95637.34;5080698;28;20063;-80
2021/06/23 10:28:38;;;;;;;10.48;6.80;;;;;;;22.36;72.33;95641.25;5067769;28;20049;-79
2021/06/23 10:31:04;;;;;;;8.45;7.28;;;;;;;21.68;72.29;95639.31;5091069;28;20068;-79
2021/06/23 10:33:37;;;;;;;9.07;6.28;;;;;;;21.40;72.03;95639.97;5075344;28;20062;-78
2021/06/23 10:36:03;;;;;;;9.10;7.03;;;;;;;22.12;76.12;95636.72;5076582;28;20437;-78
2021/06/23 10:38:29;;;;;;;7.78;5.85;;;;;;;22.78;69.80;95631.97;5068907;28;20051;-79
2021/06/23 10:40:57;;;;;;;8.40;6.10;;;;;;;23.33;71.49;95635.66;5068611;28;20037;-79
2021/06/23 10:43:23;;;;;;;10.73;5.55;;;;;;;22.72;67.26;95625.31;5074775;28;20045;-78
2021/06/23 10:45:48;;;;;;;7.05;5.93;;;;;;;22.93;69.46;95631.22;5074657;28;20090;-77
2021/06/23 10:48:14;;;;;;;7.28;5.47;;;;;;;21.76;67.66;95625.00;5075547;28;20040;-80
2021/06/23 10:50:40;;;;;;;8.70;5.65;;;;;;;21.37;71.50;95624.59;5074754;28;20450;-80
2021/06/23 10:53:28;;;;;;;7.90;5.60;;;;;;;21.27;71.02;95618.56;5074660;28;20044;-80
2021/06/23 10:55:54;;;;;;;6.78;5.18;;;;;;;21.06;68.49;95612.56;5070916;28;20035;-80
2021/06/23 10:58:26;;;;;;;12.15;6.70;;;;;;;21.20;74.05;95621.03;5074127;28;20041;-78
2021/06/23 11:01:05;;;;;;;9.20;6.03;;;;;;;21.24;76.05;95611.22;5073037;28;20442;-79
2021/06/23 11:03:31;;;;;;;8.30;6.13;;;;;;;21.67;75.90;95627.06;5067710;28;20053;-79
2021/06/23 11:05:57;;;;;;;8.00;6.35;;;;;;;22.28;72.22;95621.50;5071964;28;20055;-79
2021/06/23 11:08:31;;;;;;;8.27;6.55;;;;;;;22.42;67.77;95629.16;5094442;28;20621;-78
2021/06/23 11:11:00;;;;;;;9.32;5.97;;;;;;;22.05;68.67;95625.81;5070937;28;20225;-79
2021/06/23 11:13:31;;;;;;;10.80;6.43;;;;;;;21.70;67.54;95621.00;5076225;28;20051;-80
2021/06/23 11:15:57;;;;;;;10.02;6.47;;;;;;;22.12;65.12;95615.28;5076072;28;20501;-79
2021/06/23 11:18:39;;;;;;;9.43;6.75;;;;;;;22.41;71.01;95621.44;5091650;28;20040;-79
2021/06/23 11:21:19;;;;;;;9.23;6.47;;;;;;;22.49;68.15;95626.66;5094847;28;20432;-80
2021/06/23 11:24:03;;;;;;;10.82;7.53;;;;;;;22.27;71.86;95619.94;5067179;28;20079;-82
2021/06/23 11:26:29;;;;;;;12.43;6.73;;;;;;;22.52;71.97;95617.16;5073800;28;20543;-79
2021/06/23 11:29:09;;;;;;;9.23;6.25;;;;;;;22.53;71.78;95613.34;5091951;28;20044;-83
2021/06/23 11:31:50;;;;;;;8.73;5.90;;;;;;;23.07;63.00;95608.53;5086340;28;20452;-81
2021/06/23 11:34:37;;;;;;;8.15;5.82;;;;;;;23.97;62.26;95616.69;5078518;28;20037;-81
2021/06/23 11:37:07;;;;;;;7.43;5.63;;;;;;;23.64;60.76;95609.06;5088201;28;20086;-79
2021/06/23 11:39:33;;;;;;;8.15;6.13;;;;;;;24.62;61.82;95612.53;5070447;28;20059;-78
2021/06/23 11:41:59;;;;;;;8.30;6.70;;;;;;;25.20;60.31;95608.13;5072942;28;20044;-82
2021/06/23 11:44:24;;;;;;;9.07;6.57;;;;;;;24.86;58.83;95600.66;5089452;28;20036;-80
2021/06/23 11:46:50;;;;;;;8.45;6.57;;;;;;;25.25;58.95;95613.19;5096295;28;20466;-79